createdAt,value
2022-09-11T00:00:45.814Z,101184.88
2022-09-11T00:03:13.781Z,101183.56
2022-09-11T00:05:41.831Z,101187.16
2022-09-11T00:08:19.460Z,101188.03
2022-09-11T00:10:48.600Z,101191.63
2022-09-11T00:13:21.525Z,101185.88
2022-09-11T00:15:50.360Z,101177.91
2022-09-11T00:18:21.894Z,101181.81
2022-09-11T00:20:50.277Z,101190.06
2022-09-11T00:23:18.719Z,101187.28
2022-09-11T00:25:46.989Z,101190.28
2022-09-11T00:28:21.952Z,101182.69
2022-09-11T00:30:59.455Z,101177.59
2022-09-11T00:33:27.649Z,101179.03
2022-09-11T00:35:59.948Z,101158.34
2022-09-11T00:38:28.692Z,101158.50
2022-09-11T00:40:58.020Z,101154.13
2022-09-11T00:43:26.771Z,101157.47
2022-09-11T00:46:04.349Z,101166.75
2022-09-11T00:48:34.334Z,101171.81
2022-09-11T00:51:03.987Z,101169.75
2022-09-11T00:53:34.329Z,101151.13
2022-09-11T00:56:04.034Z,101152.19
2022-09-11T00:58:34.252Z,101147.72
2022-09-11T01:01:02.540Z,101151.09
2022-09-11T01:03:32.234Z,101158.69
2022-09-11T01:06:00.412Z,101150.28
2022-09-11T01:08:29.157Z,101154.44
2022-09-11T01:11:06.261Z,101153.59
2022-09-11T01:14:01.288Z,101161.19
2022-09-11T01:16:32.050Z,101161.75
2022-09-11T01:19:44.264Z,101162.22
2022-09-11T01:22:33.987Z,101169.31
2022-09-11T01:25:09.377Z,101166.19
2022-09-11T01:28:01.056Z,101171.59
2022-09-11T01:30:33.958Z,101161.44
2022-09-11T01:33:20.025Z,101144.97
2022-09-11T01:35:58.589Z,101147.00
2022-09-11T01:38:39.239Z,101154.19
2022-09-11T01:41:09.286Z,101147.22
2022-09-11T01:43:43.754Z,101137.66
2022-09-11T01:46:11.571Z,101134.22
2022-09-11T01:48:45.529Z,101125.75
2022-09-11T01:51:19.094Z,101125.00
2022-09-11T01:53:50.240Z,101121.25
2022-09-11T01:56:29.801Z,101122.13
2022-09-11T01:59:01.531Z,101115.25
2022-09-11T02:01:33.234Z,101099.19
2022-09-11T02:04:16.815Z,101095.38
2022-09-11T02:07:04.381Z,101091.13
2022-09-11T02:09:37.725Z,101089.88
2022-09-11T02:12:07.733Z,101079.22
2022-09-11T02:14:41.436Z,101079.63
2022-09-11T02:17:36.706Z,101080.19
2022-09-11T02:20:05.635Z,101085.28
2022-09-11T02:22:33.849Z,101082.56
2022-09-11T02:25:03.113Z,101088.63
2022-09-11T02:27:33.829Z,101088.34
2022-09-11T02:30:02.507Z,101085.25
2022-09-11T02:32:33.117Z,101081.69
2022-09-11T02:35:01.208Z,101072.66
2022-09-11T02:37:34.816Z,101072.44
2022-09-11T02:40:27.257Z,101076.09
2022-09-11T02:43:14.344Z,101078.84
2022-09-11T02:46:30.072Z,101077.81
2022-09-11T02:49:08.445Z,101078.19
2022-09-11T02:51:46.717Z,101073.09
2022-09-11T02:54:33.950Z,101065.47
2022-09-11T02:57:08.105Z,101059.41
2022-09-11T02:59:42.724Z,101060.19
2022-09-11T03:02:15.437Z,101071.16
2022-09-11T03:04:43.104Z,101068.16
2022-09-11T03:07:10.937Z,101059.06
2022-09-11T03:09:38.618Z,101050.84
2022-09-11T03:12:12.768Z,101054.56
2022-09-11T03:14:40.949Z,101061.09
2022-09-11T03:17:10.128Z,101057.56
2022-09-11T03:19:37.841Z,101048.72
2022-09-11T03:22:05.447Z,101049.75
2022-09-11T03:24:33.651Z,101044.00
2022-09-11T03:27:01.595Z,101045.03
2022-09-11T03:29:31.848Z,101045.97
2022-09-11T03:32:00.950Z,101042.28
2022-09-11T03:34:30.088Z,101047.97
2022-09-11T03:36:57.677Z,101052.41
2022-09-11T03:39:25.628Z,101050.06
2022-09-11T03:41:54.376Z,101031.16
2022-09-11T03:44:24.188Z,101033.25
2022-09-11T03:46:53.170Z,101036.16
2022-09-11T03:49:20.732Z,101025.22
2022-09-11T03:51:48.386Z,101000.44
2022-09-11T03:54:17.796Z,101012.88
2022-09-11T03:56:46.844Z,101016.47
2022-09-11T03:59:16.165Z,101010.16
2022-09-11T04:01:45.393Z,101010.78
2022-09-11T04:04:13.276Z,101000.63
2022-09-11T04:06:43.954Z,101007.03
2022-09-11T04:09:11.781Z,101004.66
2022-09-11T04:11:41.458Z,100999.25
2022-09-11T04:14:16.220Z,100997.19
2022-09-11T04:16:45.002Z,100983.91
2022-09-11T04:19:13.494Z,100989.22
2022-09-11T04:21:43.780Z,100990.50
2022-09-11T04:24:11.569Z,100992.38
2022-09-11T04:26:39.144Z,100984.63
2022-09-11T04:29:13.254Z,100984.38
2022-09-11T04:31:41.444Z,100987.75
2022-09-11T04:34:11.537Z,100985.41
2022-09-11T04:36:39.658Z,100978.09
2022-09-11T04:39:12.014Z,100979.56
2022-09-11T04:41:39.604Z,100978.34
2022-09-11T04:44:07.234Z,100980.25
2022-09-11T04:46:42.592Z,100976.41
2022-09-11T04:49:11.650Z,100978.34
2022-09-11T04:51:40.673Z,100978.75
2022-09-11T04:54:14.849Z,100978.09
2022-09-11T04:56:42.771Z,100970.03
2022-09-11T04:59:19.803Z,100963.09
2022-09-11T05:02:08.368Z,100961.59
2022-09-11T05:04:39.993Z,100971.72
2022-09-11T05:07:08.288Z,100964.97
2022-09-11T05:09:36.002Z,100972.34
2022-09-11T05:12:05.243Z,100977.06
2022-09-11T05:14:35.979Z,100969.09
2022-09-11T05:17:04.327Z,100967.38
2022-09-11T05:19:36.352Z,100965.94
2022-09-11T05:22:04.472Z,100965.34
2022-09-11T05:24:33.229Z,100979.50
2022-09-11T05:27:01.377Z,100974.03
2022-09-11T05:29:32.455Z,100978.06
2022-09-11T05:32:09.735Z,100975.06
2022-09-11T05:34:37.821Z,100972.72
2022-09-11T05:37:07.943Z,100972.28
2022-09-11T05:39:42.099Z,100970.78
2022-09-11T05:42:11.896Z,100966.59
2022-09-11T05:44:42.905Z,100963.84
2022-09-11T05:47:10.823Z,100960.50
2022-09-11T05:49:39.767Z,100964.34
2022-09-11T05:52:07.924Z,100961.22
2022-09-11T05:54:36.309Z,100948.38
2022-09-11T05:57:07.821Z,100957.69
2022-09-11T05:59:38.694Z,100950.94
2022-09-11T06:02:06.411Z,100953.09
2022-09-11T06:04:44.933Z,100956.09
2022-09-11T06:07:13.152Z,100942.78
2022-09-11T06:09:42.667Z,100943.25
2022-09-11T06:12:12.971Z,100934.81
2022-09-11T06:14:44.561Z,100934.19
2022-09-11T06:17:13.060Z,100932.31
2022-09-11T06:19:40.978Z,100915.44
2022-09-11T06:22:08.662Z,100923.91
2022-09-11T06:24:42.367Z,100927.06
2022-09-11T06:27:10.234Z,100919.53
2022-09-11T06:29:45.039Z,100918.50
2022-09-11T06:32:13.072Z,100905.25
2022-09-11T06:34:41.317Z,100907.78
2022-09-11T06:37:12.256Z,100907.81
2022-09-11T06:42:10.829Z,100901.97
2022-09-11T06:44:38.365Z,100898.19
2022-09-11T06:47:07.179Z,100895.03
2022-09-11T06:49:36.620Z,100887.00
2022-09-11T06:52:34.830Z,100890.38
2022-09-11T06:55:22.930Z,100877.06
2022-09-11T06:57:59.001Z,100885.16
2022-09-11T07:00:29.121Z,100887.03
2022-09-11T07:02:57.120Z,100888.31
2022-09-11T07:05:26.078Z,100883.84
2022-09-11T07:07:55.613Z,100882.16
2022-09-11T07:10:24.843Z,100879.59
2022-09-11T07:12:58.146Z,100884.25
2022-09-11T07:15:26.250Z,100875.81
2022-09-11T07:17:55.504Z,100875.41
2022-09-11T07:20:23.484Z,100874.75
2022-09-11T07:22:51.907Z,100884.47
2022-09-11T07:25:21.096Z,100887.28
2022-09-11T07:27:48.674Z,100891.06
2022-09-11T07:30:16.692Z,100895.91
2022-09-11T07:32:47.124Z,100899.31
2022-09-11T07:35:21.469Z,100899.94
2022-09-11T07:37:52.121Z,100899.97
2022-09-11T07:40:24.279Z,100892.13
2022-09-11T07:42:51.865Z,100894.88
2022-09-11T07:45:22.892Z,100897.81
2022-09-11T07:47:51.175Z,100895.31
2022-09-11T07:50:19.263Z,100894.44
2022-09-11T07:52:46.854Z,100897.19
2022-09-11T07:55:15.068Z,100885.97
2022-09-11T07:57:43.027Z,100870.75
2022-09-11T08:00:11.966Z,100870.31
2022-09-11T08:03:00.762Z,100868.41
2022-09-11T08:05:33.985Z,100866.53
2022-09-11T08:08:01.848Z,100865.22
2022-09-11T08:10:30.537Z,100860.56
2022-09-11T08:13:00.088Z,100858.66
2022-09-11T08:15:33.058Z,100855.44
2022-09-11T08:18:02.231Z,100849.06
2022-09-11T08:20:31.071Z,100847.81
2022-09-11T08:22:58.817Z,100840.78
2022-09-11T08:25:28.783Z,100842.50
2022-09-11T08:27:57.920Z,100842.94
2022-09-11T08:30:26.024Z,100841.97
2022-09-11T08:32:53.801Z,100853.16
2022-09-11T08:35:21.842Z,100857.97
2022-09-11T08:37:54.130Z,100866.84
2022-09-11T08:40:22.450Z,100867.66
2022-09-11T08:42:50.333Z,100871.72
2022-09-11T08:45:19.524Z,100866.59
2022-09-11T08:47:55.810Z,100863.81
2022-09-11T08:50:28.625Z,100856.41
2022-09-11T08:52:58.396Z,100857.06
2022-09-11T08:55:40.007Z,100852.22
2022-09-11T08:58:31.456Z,100843.31
2022-09-11T09:00:59.201Z,100835.50
2022-09-11T09:03:49.281Z,100838.72
2022-09-11T09:06:40.887Z,100825.56
2022-09-11T09:09:19.451Z,100816.50
2022-09-11T09:11:53.541Z,100838.94
2022-09-11T09:14:47.028Z,100823.91
2022-09-11T09:17:25.409Z,100835.56
2022-09-11T09:19:57.789Z,100830.13
2022-09-11T09:22:31.538Z,100823.78
2022-09-11T09:25:01.858Z,100825.88
2022-09-11T09:27:34.874Z,100845.97
2022-09-11T09:30:05.689Z,100832.69
2022-09-11T09:32:40.398Z,100829.28
2022-09-11T09:35:16.901Z,100825.47
2022-09-11T09:37:45.411Z,100808.16
2022-09-11T09:40:15.775Z,100808.22
2022-09-11T09:43:12.565Z,100802.69
2022-09-11T09:46:16.387Z,100796.78
2022-09-11T09:48:45.225Z,100789.38
2022-09-11T09:51:13.814Z,100801.84
2022-09-11T09:54:01.448Z,100800.56
2022-09-11T09:56:31.163Z,100789.81
2022-09-11T09:59:15.495Z,100789.19
2022-09-11T10:01:47.897Z,100775.25
2022-09-11T10:04:19.585Z,100777.56
2022-09-11T10:06:48.409Z,100776.50
2022-09-11T10:09:24.552Z,100767.19
2022-09-11T10:12:12.870Z,100766.56
2022-09-11T10:14:52.248Z,100764.69
2022-09-11T10:17:32.992Z,100762.38
2022-09-11T10:20:15.905Z,100738.47
2022-09-11T10:22:44.051Z,100728.34
2022-09-11T10:25:15.956Z,100705.31
2022-09-11T10:28:03.654Z,100698.72
2022-09-11T10:30:32.490Z,100697.25
2022-09-11T10:33:03.693Z,100698.31
2022-09-11T10:35:34.183Z,100691.78
2022-09-11T10:38:20.796Z,100687.75
2022-09-11T10:41:06.895Z,100677.84
2022-09-11T10:43:47.584Z,100670.41
2022-09-11T10:46:18.049Z,100659.84
2022-09-11T10:49:04.091Z,100660.47
2022-09-11T10:51:45.530Z,100661.31
2022-09-11T10:54:22.271Z,100674.78
2022-09-11T10:57:00.358Z,100670.56
2022-09-11T10:59:41.932Z,100672.81
2022-09-11T11:02:15.595Z,100658.31
2022-09-11T11:04:43.264Z,100666.13
2022-09-11T11:07:22.848Z,100656.72
2022-09-11T11:10:01.571Z,100655.81
2022-09-11T11:12:46.684Z,100658.53
2022-09-11T11:15:30.186Z,100654.75
2022-09-11T11:18:19.256Z,100635.91
2022-09-11T11:20:53.097Z,100638.81
2022-09-11T11:23:36.147Z,100637.41
2022-09-11T11:26:19.734Z,100627.75
2022-09-11T11:28:54.439Z,100619.56
2022-09-11T11:31:40.246Z,100621.03
2022-09-11T11:34:23.173Z,100619.66
2022-09-11T11:37:09.353Z,100619.91
2022-09-11T11:39:45.020Z,100616.19
2022-09-11T11:42:26.955Z,100613.56
2022-09-11T11:44:59.444Z,100604.94
2022-09-11T11:47:32.780Z,100595.84
2022-09-11T11:50:18.788Z,100597.34
2022-09-11T11:53:07.340Z,100599.91
2022-09-11T11:55:39.575Z,100596.50
2022-09-11T11:58:14.611Z,100600.28
2022-09-11T12:00:44.482Z,100592.78
2022-09-11T12:03:18.886Z,100588.72
2022-09-11T12:05:46.403Z,100577.91
2022-09-11T12:08:14.768Z,100577.91
2022-09-11T12:10:45.736Z,100569.22
2022-09-11T12:13:15.644Z,100565.28
2022-09-11T12:16:11.361Z,100563.28
2022-09-11T12:18:39.296Z,100561.47
2022-09-11T12:21:25.338Z,100564.31
2022-09-11T12:24:00.091Z,100551.97
2022-09-11T12:26:28.300Z,100549.22
2022-09-11T12:29:20.320Z,100552.47
2022-09-11T12:31:51.045Z,100551.91
2022-09-11T12:34:26.188Z,100545.53
2022-09-11T12:36:59.821Z,100548.44
2022-09-11T12:39:32.069Z,100556.69
2022-09-11T12:42:26.003Z,100559.22
2022-09-11T12:44:54.292Z,100562.03
2022-09-11T12:47:24.965Z,100553.28
2022-09-11T12:50:04.463Z,100559.19
2022-09-11T12:52:45.604Z,100559.94
2022-09-11T12:55:40.996Z,100558.25
2022-09-11T12:58:34.296Z,100557.69
2022-09-11T13:01:15.532Z,100557.22
2022-09-11T13:04:13.384Z,100558.06
2022-09-11T13:06:56.451Z,100554.47
2022-09-11T13:09:29.289Z,100544.97
2022-09-11T13:11:57.995Z,100537.66
2022-09-11T13:14:33.100Z,100541.13
2022-09-11T13:17:05.093Z,100551.16
2022-09-11T13:19:34.201Z,100542.75
2022-09-11T13:22:01.863Z,100539.31
2022-09-11T13:24:34.131Z,100548.78
2022-09-11T13:27:09.573Z,100543.47
2022-09-11T13:29:38.636Z,100544.13
2022-09-11T13:32:11.599Z,100535.19
2022-09-11T13:34:39.277Z,100527.97
2022-09-11T13:37:14.672Z,100517.59
2022-09-11T13:39:42.879Z,100524.97
2022-09-11T13:42:16.425Z,100521.72
2022-09-11T13:44:47.725Z,100524.28
2022-09-11T13:47:25.132Z,100520.03
2022-09-11T13:50:03.524Z,100514.44
2022-09-11T13:52:33.321Z,100504.66
2022-09-11T13:55:10.492Z,100510.88
2022-09-11T13:57:58.686Z,100521.00
2022-09-11T14:00:55.883Z,100509.06
2022-09-11T14:03:32.345Z,100509.84
2022-09-11T14:06:01.386Z,100502.50
2022-09-11T14:08:36.529Z,100508.16
2022-09-11T14:11:13.475Z,100509.59
2022-09-11T14:13:51.227Z,100510.69
2022-09-11T14:16:29.509Z,100502.19
2022-09-11T14:19:13.453Z,100501.50
2022-09-11T14:21:45.992Z,100498.38
2022-09-11T14:24:26.174Z,100489.50
2022-09-11T14:26:53.776Z,100495.94
2022-09-11T14:29:24.428Z,100484.06
2022-09-11T14:31:53.276Z,100490.28
2022-09-11T14:34:30.185Z,100485.97
2022-09-11T14:37:03.273Z,100478.75
2022-09-11T14:39:37.049Z,100486.50
2022-09-11T14:42:10.439Z,100481.81
2022-09-11T14:44:40.439Z,100478.38
2022-09-11T14:47:13.848Z,100473.66
2022-09-11T14:49:41.460Z,100468.63
2022-09-11T14:52:10.336Z,100464.38
2022-09-11T14:54:37.860Z,100464.38
2022-09-11T14:57:15.200Z,100458.16
2022-09-11T14:59:45.641Z,100450.91
2022-09-11T15:02:14.353Z,100447.81
2022-09-11T15:04:41.892Z,100440.03
2022-09-11T15:07:11.992Z,100431.66
2022-09-11T15:09:40.274Z,100422.22
2022-09-11T15:12:08.442Z,100430.03
2022-09-11T15:14:55.637Z,100442.53
2022-09-11T15:17:25.495Z,100450.13
2022-09-11T15:19:53.597Z,100456.97
2022-09-11T15:22:21.137Z,100452.78
2022-09-11T15:24:48.999Z,100465.84
2022-09-11T15:27:17.303Z,100469.69
2022-09-11T15:29:45.397Z,100468.13
2022-09-11T15:32:14.579Z,100461.44
2022-09-11T15:34:42.527Z,100456.03
2022-09-11T15:37:11.825Z,100462.25
2022-09-11T15:39:39.608Z,100456.38
2022-09-11T15:42:07.654Z,100440.53
2022-09-11T15:44:35.420Z,100438.56
2022-09-11T15:47:04.364Z,100430.50
2022-09-11T15:49:33.205Z,100424.59
2022-09-11T15:52:01.261Z,100423.56
2022-09-11T15:54:29.649Z,100420.53
2022-09-11T15:56:57.215Z,100432.84
2022-09-11T15:59:24.750Z,100427.50
2022-09-11T16:01:52.433Z,100431.97
2022-09-11T16:04:21.372Z,100435.88
2022-09-11T16:06:50.218Z,100434.28
2022-09-11T16:09:19.953Z,100441.53
2022-09-11T16:11:50.927Z,100437.19
2022-09-11T16:14:27.235Z,100428.16
2022-09-11T16:16:56.360Z,100430.56
2022-09-11T16:19:27.587Z,100427.72
2022-09-11T16:21:56.544Z,100426.88
2022-09-11T16:24:25.588Z,100425.56
2022-09-11T16:26:56.166Z,100422.66
2022-09-11T16:29:25.941Z,100424.84
2022-09-11T16:31:56.912Z,100442.19
2022-09-11T16:34:24.361Z,100433.94
2022-09-11T16:36:52.391Z,100428.66
2022-09-11T16:39:19.955Z,100440.13
2022-09-11T16:41:47.847Z,100424.06
2022-09-11T16:44:16.395Z,100425.72
2022-09-11T16:46:44.434Z,100420.47
2022-09-11T16:49:16.815Z,100421.75
2022-09-11T16:51:45.285Z,100415.69
2022-09-11T16:54:13.307Z,100412.41
2022-09-11T16:56:45.754Z,100407.41
2022-09-11T16:59:13.669Z,100406.06
2022-09-11T17:01:41.842Z,100418.31
2022-09-11T17:08:46.432Z,100417.13
2022-09-11T17:11:16.452Z,100424.09
2022-09-11T17:13:44.751Z,100422.00
2022-09-11T17:16:20.941Z,100412.72
2022-09-11T17:18:49.659Z,100414.19
2022-09-11T17:21:17.480Z,100412.53
2022-09-11T17:23:45.458Z,100411.44
2022-09-11T17:26:14.144Z,100414.66
2022-09-11T17:28:42.932Z,100414.66
2022-09-11T17:31:10.988Z,100411.03
2022-09-11T17:33:40.380Z,100411.88
2022-09-11T17:36:10.041Z,100404.06
2022-09-11T17:38:38.568Z,100394.00
2022-09-11T17:41:07.200Z,100403.97
2022-09-11T17:43:35.440Z,100416.44
2022-09-11T17:46:08.328Z,100405.69
2022-09-11T17:48:36.388Z,100401.88
2022-09-11T17:51:08.189Z,100404.44
2022-09-11T17:53:38.490Z,100397.09
2022-09-11T17:56:09.847Z,100409.72
2022-09-11T17:58:38.538Z,100410.38
2022-09-11T18:01:06.329Z,100394.97
2022-09-11T18:03:34.403Z,100401.31
2022-09-11T18:06:02.779Z,100396.69
2022-09-11T18:08:32.956Z,100393.72
2022-09-11T18:11:01.300Z,100398.75
2022-09-11T18:13:31.969Z,100399.16
2022-09-11T18:16:00.022Z,100392.56
2022-09-11T18:18:27.858Z,100383.72
2022-09-11T18:20:55.629Z,100386.72
2022-09-11T18:23:23.411Z,100380.19
2022-09-11T18:25:51.693Z,100376.38
2022-09-11T18:28:20.101Z,100377.19
2022-09-11T18:30:49.383Z,100383.34
2022-09-11T18:33:17.410Z,100381.22
2022-09-11T18:35:46.743Z,100384.34
2022-09-11T18:38:14.441Z,100380.31
2022-09-11T18:40:41.977Z,100374.66
2022-09-11T18:43:09.519Z,100369.63
2022-09-11T18:45:37.129Z,100359.09
2022-09-11T18:48:05.121Z,100357.44
2022-09-11T18:50:32.721Z,100346.03
2022-09-11T18:53:01.211Z,100343.75
2022-09-11T18:55:29.530Z,100342.50
2022-09-11T18:57:57.329Z,100351.59
2022-09-11T19:00:24.859Z,100350.75
2022-09-11T19:02:54.871Z,100343.59
2022-09-11T19:05:23.285Z,100338.34
2022-09-11T19:07:51.022Z,100347.00
2022-09-11T19:10:18.652Z,100353.34
2022-09-11T19:12:48.199Z,100340.28
2022-09-11T19:15:16.993Z,100340.28
2022-09-11T19:17:47.750Z,100331.44
2022-09-11T19:20:16.565Z,100332.91
2022-09-11T19:22:44.492Z,100329.13
2022-09-11T19:25:12.271Z,100326.78
2022-09-11T19:27:39.922Z,100324.69
2022-09-11T19:30:08.858Z,100316.47
2022-09-11T19:32:37.504Z,100319.81
2022-09-11T19:35:05.387Z,100311.41
2022-09-11T19:37:33.739Z,100312.88
2022-09-11T19:40:01.501Z,100307.78
2022-09-11T19:42:29.460Z,100302.13
2022-09-11T19:44:56.926Z,100298.31
2022-09-11T19:47:25.668Z,100297.06
2022-09-11T19:49:54.430Z,100286.34
2022-09-11T19:52:22.140Z,100289.28
2022-09-11T19:54:49.810Z,100286.16
2022-09-11T19:57:18.040Z,100285.53
2022-09-11T19:59:45.547Z,100281.13
2022-09-11T20:02:13.076Z,100276.72
2022-09-11T20:04:40.664Z,100276.03
2022-09-11T20:07:08.147Z,100279.81
2022-09-11T20:09:35.649Z,100274.13
2022-09-11T20:12:03.525Z,100272.41
2022-09-11T20:14:31.333Z,100274.94
2022-09-11T20:17:01.195Z,100278.72
2022-09-11T20:19:29.045Z,100266.91
2022-09-11T20:21:56.783Z,100274.91
2022-09-11T20:24:24.413Z,100273.81
2022-09-11T20:26:53.307Z,100271.09
2022-09-11T20:29:20.761Z,100268.72
2022-09-11T20:31:51.239Z,100267.38
2022-09-11T20:34:19.503Z,100266.72
2022-09-11T20:36:47.180Z,100264.81
2022-09-11T20:39:15.406Z,100267.78
2022-09-11T20:41:43.199Z,100257.63
2022-09-11T20:44:10.755Z,100257.59
2022-09-11T20:46:40.146Z,100251.06
2022-09-11T20:49:07.801Z,100257.75
2022-09-11T20:51:35.468Z,100252.63
2022-09-11T20:54:03.032Z,100250.69
2022-09-11T20:56:30.824Z,100244.19
2022-09-11T20:59:00.685Z,100234.50
2022-09-11T21:01:32.503Z,100242.03
2022-09-11T21:04:01.082Z,100241.78
2022-09-11T21:06:30.653Z,100244.50
2022-09-11T21:09:00.030Z,100234.78
2022-09-11T21:11:28.390Z,100235.19
2022-09-11T21:13:56.044Z,100235.13
2022-09-11T21:16:24.266Z,100234.88
2022-09-11T21:18:57.422Z,100235.75
2022-09-11T21:21:25.728Z,100233.88
2022-09-11T21:23:57.072Z,100222.56
2022-09-11T21:26:26.400Z,100225.06
2022-09-11T21:28:53.998Z,100226.97
2022-09-11T21:31:21.548Z,100221.72
2022-09-11T21:33:49.173Z,100214.78
2022-09-11T21:36:16.874Z,100218.91
2022-09-11T21:38:44.431Z,100213.88
2022-09-11T21:41:12.353Z,100217.44
2022-09-11T21:43:39.944Z,100217.63
2022-09-11T21:46:08.097Z,100209.00
2022-09-11T21:48:37.056Z,100207.34
2022-09-11T21:51:15.736Z,100211.94
2022-09-11T21:53:45.028Z,100215.69
2022-09-11T21:56:20.674Z,100208.13
2022-09-11T21:58:48.948Z,100206.63
2022-09-11T22:01:16.573Z,100206.19
2022-09-11T22:03:45.048Z,100208.47
2022-09-11T22:06:14.936Z,100198.59
2022-09-11T22:08:43.214Z,100196.81
2022-09-11T22:11:11.808Z,100203.28
2022-09-11T22:13:39.911Z,100207.72
2022-09-11T22:16:09.774Z,100203.28
2022-09-11T22:18:38.162Z,100201.16
2022-09-11T22:21:05.910Z,100205.13
2022-09-11T22:23:34.149Z,100202.78
2022-09-11T22:26:02.113Z,100196.03
2022-09-11T22:28:30.018Z,100193.94
2022-09-11T22:30:57.564Z,100196.03
2022-09-11T22:33:25.476Z,100198.13
2022-09-11T22:35:52.993Z,100189.09
2022-09-11T22:38:20.485Z,100196.44
2022-09-11T22:40:57.136Z,100187.16
2022-09-11T22:43:25.109Z,100192.53
2022-09-11T22:45:53.752Z,100187.09
2022-09-11T22:48:21.608Z,100185.56
2022-09-11T22:50:49.558Z,100196.16
2022-09-11T22:53:17.072Z,100187.81
2022-09-11T22:55:45.192Z,100190.16
2022-09-11T22:58:12.736Z,100184.88
2022-09-11T23:00:40.998Z,100173.72
2022-09-11T23:03:08.675Z,100181.91
2022-09-11T23:05:54.710Z,100171.59
2022-09-11T23:08:26.324Z,100169.44
2022-09-11T23:10:54.375Z,100174.91
2022-09-11T23:13:22.224Z,100163.81
2022-09-11T23:15:49.809Z,100168.88
2022-09-11T23:18:17.512Z,100168.66
2022-09-11T23:20:45.633Z,100168.66
2022-09-11T23:23:13.351Z,100171.97
2022-09-11T23:25:42.312Z,100166.72
2022-09-11T23:28:09.800Z,100166.09
2022-09-11T23:30:40.728Z,100172.19
2022-09-11T23:33:08.237Z,100163.38
2022-09-11T23:35:39.594Z,100161.03
2022-09-11T23:38:07.522Z,100162.22
2022-09-11T23:40:35.008Z,100165.91
2022-09-11T23:43:02.495Z,100163.19
2022-09-11T23:45:30.047Z,100164.47
2022-09-11T23:47:57.622Z,100147.41
2022-09-11T23:50:25.223Z,100154.78
2022-09-11T23:52:52.830Z,100154.34
2022-09-11T23:55:21.211Z,100145.03
2022-09-11T23:57:53.504Z,100146.56
